Terminal Aerodrome Forecast
Issued by NWS

Home | Current Version | Previous Version | Text Only | Print | Product List | Glossary On
Versions: 1 2 3 4 5 6 7 8 9 10 11 12 13 14 15
000
FTUS42 KTBW 210522
TAFPGD
TAF
KPGD 210522Z 2106/2206 07005KT P6SM SCT250
     FM211400 12010KT P6SM SCT040 SCT250
     FM212200 24010KT P6SM SCT045 SCT250
     FM220100 07005KT P6SM SCT035 BKN050=

USA.gov is the U.S. government's official web portal to all federal, state and local government web resources and services.